Airfield :
LOGIN :

Register | Disclaimer

   EN    FR    IT 

 










Legend :    VFR   Marginal VFR   IFR   Intensive IFR   Very Intensive IFR
Visi :
Ceiling :
>= 8 km
>= 3000ft
5 to 8 km
1000 to 3000 ft
1500m to 5 km
500 to 1000 ft
800 to 1500m
200 to 500 ft
< 800m
< 200 ft
Symbols :   Thunderstorms  Fog  Heavy snow  Heavy precipitations  Wind > 20 kt
SIGMETs :     Misc.  Thunderstorms  Icing  Turbulence  Mountain Waves  Volcanic Ashes







- Airport Elevation : 538 ft
- IATA code : TNF
- Download approach charts


LFPN - Toussus Le Noble

CURRENT METAR :
  • 281200Z AUTO 33004KT 240V020 9999 SCT032 SCT039 14/06 Q1016 TEMPO 30015G25KT SHRA BKN030 SCT035CB

EXPIRED METARs :
  • 281130Z AUTO 28004KT 240V040 9999 SCT023/// SCT028/// ///TCU 11/05 Q1016 TEMPO 30015G25KT SHRA BKN030 SCT035CB
  • 281100Z AUTO 29004KT 220V030 9999 BKN020/// BKN026/// BKN033/// ///TCU 11/05 Q1017 TEMPO 30015G25KT 4000 -SHRA BKN035
  • 281030Z AUTO 31005KT 260V350 9999 FEW012/// SCT018/// BKN025/// ///CB 11/07 Q1017 TEMPO 30015G25KT 4000 -SHRA BKN035
  • 281000Z AUTO 33007KT 300V010 9999 OVC011 09/07 Q1017 BECMG BKN035
  • 280930Z AUTO 32006KT 280V350 9999 OVC010 09/07 Q1017 BECMG BKN035
  • 280900Z AUTO 31005KT 270V330 9999 BKN009 OVC050 08/06 Q1017 BECMG BKN035

TAF TAF LFPN
Valid from the 28 at 12:00 until the 28 at 21:00 UTC


281100Z 2812/2821 33005KT 9999 BKN025
TEMPO 2812/2818 -SHRA BKN030TCU
PROB30
TEMPO 2812/2816 30015G25KT SHRA BKN030 SCT035CB
ATIS : +33 1 39 56 54 70
No reported NOTAMs for that airfield.



MET'MAP, your aeronautical weather chart ! - Copyright ORBIFLY December 2007 - Disclaimer

ORBIFLY MET'MAP TEAM :

Programming & Development : Alexandra Zaïnal
Concept & Development : Baudouin d'Aumeries
Co-Development & Prog : Marc-Olivier Méhu
Technical & hardware support : Manuel Goepfert

Contact : metmap@orbifly.com




SOURCES & CREDITS :

   NOAA